• Join FlightAware (Why Join?)
  • Login
  • US Flag 
10:02AM EDT


 

Airport Tracker/Info


-or-


 

Live Flight TrackerFlight Track Log ✈ EJA951 ✈ 23-May-2013 ✈ KSFO - KBFI

Flight Track Log - Related Links

Times and Time Zones

All times are in EDT time to prevent confusion due to time zone crossing. See the EJA951 flight status page for this flight to view local times or setup timezone preferences in your user account.

Time Position Orientation Groundspeed Altitude Reporting Facility
EDT Latitude Longitude Course Direction KTS MPH feet Rate Location/Type
07:53PM 37.6333 -122.3667 58° Northeast 172 198 1,000  Level Northern Cal TRACON
07:54PM 37.6667 -122.3000 58° Northeast 229 264 5,200 4,200 Climbing Northern Cal TRACON
07:55PM 37.7333 -122.2667 22° Northeast 325 374 9,900 2,520 Climbing Northern Cal TRACON
07:57PM 37.9394 -122.2358 North 364 419 13,500 1,860 Climbing Oakland Center
07:58PM 38.0317 -122.1944 19° North 356 410 15,800 2,220 Climbing Oakland Center
07:59PM 38.1458 -122.1439 19° North 365 420 18,100 1,860 Climbing Oakland Center
08:00PM 38.2431 -122.0961 21° North 375 432 19,700 1,560 Climbing Oakland Center
08:01PM 38.3500 -122.0636 13° North 400 460 21,400 1,620 Climbing Oakland Center
08:02PM 38.4606 -122.0714 357° North 400 460 23,100 1,860 Climbing Oakland Center
08:03PM 38.5744 -122.0792 357° North 409 471 25,300 1,860 Climbing Oakland Center
08:04PM 38.7025 -122.0872 357° North 412 474 27,000 1,560 Climbing Oakland Center
08:06PM 38.8231 -122.0964 357° North 425 489 28,600 1,620 Climbing Oakland Center
08:07PM 38.9483 -122.1050 357° North 440 506 30,400 1,860 Climbing Oakland Center
08:08PM 39.0747 -122.1133 357° North 450 518 32,500 2,040 Climbing Oakland Center
08:09PM 39.1986 -122.1203 358° North 446 513 34,600 2,040 Climbing Oakland Center
08:10PM 39.3236 -122.1278 357° North 446 513 36,800 1,620 Climbing Oakland Center
08:11PM 39.4492 -122.1361 357° North 449 517 38,000 540 Climbing Oakland Center
08:12PM 39.5900 -122.1461 357° North 475 547 38,000  Level Oakland Center
08:13PM 39.7267 -122.1547 357° North 490 564 38,000  Level Oakland Center
08:14PM 39.8608 -122.1628 357° North 487 560 38,000  Level Oakland Center
08:15PM 40.0194 -122.1733 357° North 482 555 38,000  Level Oakland Center
08:16PM 40.1500 -122.1814 357° North 483 556 38,000  Level Oakland Center
08:17PM 40.2800 -122.1906 357° North 482 555 38,000  Level Oakland Center
08:18PM 40.4125 -122.2006 357° North 481 554 38,000  Level Oakland Center
08:19PM 40.5456 -122.2100 357° North 481 554 38,000  Level Oakland Center
08:20PM 40.7050 -122.2206 357° North 481 554 38,000  Level Oakland Center
08:21PM 40.8386 -122.2300 357° North 481 554 38,000  Level Oakland Center
08:22PM 40.9717 -122.2383 357° North 481 554 38,000  Level Oakland Center
08:23PM 41.1033 -122.2492 356° North 477 549 38,000  Level Oakland Center
08:24PM 41.2358 -122.2594 357° North 478 550 38,000  Level Oakland Center
08:25PM 41.3669 -122.2667 358° North 473 544 38,000  Level Oakland Center
08:26PM 41.4481 -122.2725 357° North 475 547 38,000  Level Seattle Center
08:27PM 41.5789 -122.2803 357° North 472 543 38,000  Level Seattle Center
08:28PM 41.7069 -122.2881 357° North 461 531 38,000  Level Seattle Center
08:29PM 41.8364 -122.2972 357° North 463 533 38,000  Level Seattle Center
08:30PM 41.9667 -122.3050 357° North 464 534 38,000  Level Seattle Center
08:31PM 42.0972 -122.3156 357° North 465 535 38,000  Level Seattle Center
08:32PM 42.2281 -122.3239 357° North 464 534 38,000  Level Seattle Center
08:33PM 42.3581 -122.3339 357° North 463 533 38,000  Level Seattle Center
08:34PM 42.4869 -122.3436 357° North 463 533 38,000  Level Seattle Center
08:35PM 42.6164 -122.3533 357° North 463 533 38,000  Level Seattle Center
08:36PM 42.7550 -122.3625 357° North 462 532 38,000  Level Seattle Center
08:37PM 42.8836 -122.3731 357° North 463 533 38,000  Level Seattle Center
08:38PM 43.0131 -122.3808 357° North 464 534 38,000  Level Seattle Center
08:39PM 43.1428 -122.3903 357° North 465 535 38,000  Level Seattle Center
08:40PM 43.2736 -122.3997 357° North 470 541 38,000  Level Seattle Center
08:41PM 43.4056 -122.4097 357° North 474 545 38,000  Level Seattle Center
08:42PM 43.5375 -122.4192 357° North 476 548 38,000  Level Seattle Center
08:43PM 43.6714 -122.4294 357° North 479 551 38,000  Level Seattle Center
08:44PM 43.8303 -122.4425 357° North 480 552 38,000  Level Seattle Center
08:45PM 43.9639 -122.4517 357° North 480 552 38,000  Level Seattle Center
08:46PM 44.0967 -122.4617 357° North 481 554 38,000  Level Seattle Center
08:47PM 44.2306 -122.4725 357° North 484 557 38,000  Level Seattle Center
08:48PM 44.3647 -122.4825 357° North 485 558 38,000  Level Seattle Center
08:49PM 44.4992 -122.4928 357° North 487 560 38,000  Level Seattle Center
08:50PM 44.6347 -122.5044 356° North 489 563 38,000  Level Seattle Center
08:51PM 44.7703 -122.5147 357° North 489 563 38,000  Level Seattle Center
08:52PM 44.9108 -122.5256 357° North 486 559 38,000  Level Seattle Center
08:53PM 45.0450 -122.5381 356° North 486 559 38,000  Level Seattle Center
08:54PM 45.1789 -122.5483 357° North 484 557 38,000  Level Seattle Center
08:55PM 45.3117 -122.5558 358° North 482 555 38,000  Level Seattle Center
08:56PM 45.4436 -122.5747 354° North 480 552 38,000  Level Seattle Center
08:57PM 45.6028 -122.6083 352° North 485 558 38,000  Level Seattle Center
08:58PM 45.7344 -122.6361 352° North 482 555 38,000  Level Seattle Center
08:59PM 45.8675 -122.6658 351° North 483 556 38,000  Level Seattle Center
09:00PM 46.0000 -122.6942 352° North 483 556 38,000 -1,020 Level Seattle Center
09:01PM 46.1336 -122.7164 353° North 486 559 36,000 -2,220 Descending Seattle Center
09:02PM 46.2825 -122.7014 North 513 590 33,500 -2,400 Descending Seattle Center
09:03PM 46.4233 -122.6817 North 512 589 31,200 -2,460 Descending Seattle Center
09:04PM 46.5633 -122.6658 North 508 585 28,500 -2,940 Descending Seattle Center
09:05PM 46.6989 -122.6489 North 493 567 25,300 -3,600 Descending Seattle Center
09:05PM 46.7597 -122.6422 North 472 543 23,800 -3,180 Descending Seattle Center
09:06PM 46.8231 -122.6342 North 457 526 22,100 -3,000 Descending Seattle Center
09:07PM 46.8969 -122.6233 North 413 475 20,100 -2,700 Descending Seattle Center
09:07PM 46.9344 -122.6200 North 416 479 19,400 -2,520 Descending Seattle Center
09:08PM 47.0067 -122.6094 North 348 400 17,600 -3,000 Descending Seattle Center
09:08PM 47.0517 -122.6028 North 362 417 16,400 -2,340 Descending Seattle Center
09:09PM 47.1078 -122.5969 North 333 383 15,000 -2,400 Descending Seattle Center
09:09PM 47.1431 -122.5914 North 333 383 14,000 -2,760 Descending Seattle Center
09:10PM 47.1986 -122.5869 North 322 371 12,200 -2,580 Descending Seattle Center
09:10PM 47.2339 -122.5664 22° Northeast 311 358 11,400 -1,920 Descending Seattle Center
09:11PM 47.2689 -122.5225 40° Northeast 306 352 10,300 -1,920 Descending Seattle Center
09:11PM 47.2989 -122.4825 42° Northeast 310 357 9,500 -1,680 Descending Seattle Center
09:12PM 47.3578 -122.4608 14° North 291 335 8,300 -900 Descending Seattle Center
09:13PM 47.4250 -122.4633 359° North 249 287 8,000 -300 Descending Seattle Center
09:13PM 47.4467 -122.4614 North 256 295 8,000 -660 Level Seattle Center
09:14PM 47.4917 -122.4628 359° North 251 289 7,400 -1,140 Descending Seattle Center
09:14PM 47.5172 -122.4739 344° North 258 297 6,900 -1,620 Descending Seattle Center
09:15PM 47.5567 -122.4928 342° North 245 282 5,800 -1,920 Descending Seattle Center
09:15PM 47.5808 -122.5069 338° Northwest 244 281 5,000 -2,280 Descending Seattle Center
09:16PM 47.6189 -122.5275 340° North 239 275 3,500 -2,580 Descending Seattle Center
09:16PM 47.6483 -122.5400 344° North 237 273 2,400 -1,440 Descending Seattle Center
09:17PM 47.6728 -122.5572 335° Northwest 199 229 2,200 -240 Descending Seattle Center
09:17PM 47.6975 -122.5758 333° Northwest 196 226 2,200  Level Seattle Center
09:18PM 47.7167 -122.5725 North 197 227 2,200  Level Seattle Center
09:18PM 47.7358 -122.5353 53° Northeast 187 215 2,200 60 Level Seattle Center
09:19PM 47.7417 -122.5128 69° East 177 204 2,300  Climbing Seattle Center
09:19PM 47.7286 -122.4728 116° Southeast 170 196 2,200 -120 Descending Seattle Center
09:20PM 47.7128 -122.4594 150° Southeast 136 157 2,200  Level Seattle Center
09:20PM 47.6978 -122.4472 151° Southeast 124 143 2,200  Level Seattle Center
09:21PM 47.6847 -122.4356 149° Southeast 111 128 2,200  Level Seattle Center
09:21PM 47.6686 -122.4222 151° Southeast 114 131 2,200  Level Seattle Center
09:22PM 47.6564 -122.4117 150° Southeast 116 133 2,200  Level Seattle Center
09:22PM 47.6408 -122.3983 150° Southeast 115 132 2,200 -120 Level Seattle Center
09:23PM 47.6281 -122.3878 151° Southeast 115 132 2,100 -420 Descending Seattle Center
09:23PM 47.6133 -122.3747 149° Southeast 115 132 1,800 -720 Descending Seattle Center
09:24PM 47.6000 -122.3639 151° Southeast 118 136 1,400 -720 Descending Seattle Center
09:24PM 47.5839 -122.3492 148° Southeast 121 139 1,100 -600 Descending Seattle Center
09:25PM 47.5708 -122.3372 148° Southeast 123 142 800 -720 Descending Seattle Center
09:26PM 47.5539 -122.3236 152° Southeast 124 143 400 -780 Descending Seattle Center